createdAt,value
2023-11-17T00:00:14.558Z,8.20
2023-11-17T00:02:43.440Z,8.20
2023-11-17T00:05:12.460Z,8.20
2023-11-17T00:07:40.720Z,8.10
2023-11-17T00:10:10.309Z,8.10
2023-11-17T00:12:38.443Z,8.10
2023-11-17T00:15:08.029Z,8.00
2023-11-17T00:17:37.945Z,8.00
2023-11-17T00:20:07.118Z,8.00
2023-11-17T00:22:35.269Z,8.00
2023-11-17T00:25:03.668Z,8.00
2023-11-17T00:27:31.838Z,7.90
2023-11-17T00:30:00.772Z,7.90
2023-11-17T00:32:29.122Z,7.90
2023-11-17T00:34:59.287Z,7.90
2023-11-17T00:37:27.736Z,7.90
2023-11-17T00:39:56.618Z,7.90
2023-11-17T00:42:24.696Z,7.80
2023-11-17T00:44:52.998Z,7.80
2023-11-17T00:47:21.236Z,7.80
2023-11-17T00:49:49.380Z,7.80
2023-11-17T00:52:18.831Z,7.80
2023-11-17T00:54:48.800Z,7.80
2023-11-17T00:57:17.761Z,7.80
2023-11-17T00:59:45.773Z,7.80
2023-11-17T01:02:16.626Z,7.80
2023-11-17T01:04:44.805Z,7.70
2023-11-17T01:07:13.104Z,7.80
2023-11-17T01:09:44.672Z,7.80
2023-11-17T01:12:13.109Z,7.80
2023-11-17T01:14:41.514Z,7.70
2023-11-17T01:17:12.316Z,7.80
2023-11-17T01:19:46.381Z,7.80
2023-11-17T01:22:14.601Z,7.70
2023-11-17T01:24:44.239Z,7.70
2023-11-17T01:27:12.409Z,7.60
2023-11-17T01:29:40.484Z,7.60
2023-11-17T01:32:09.009Z,7.60
2023-11-17T01:34:38.527Z,7.60
2023-11-17T01:37:06.830Z,7.60
2023-11-17T01:39:35.158Z,7.60
2023-11-17T01:42:05.679Z,7.60
2023-11-17T01:44:33.873Z,7.60
2023-11-17T01:47:02.096Z,7.60
2023-11-17T01:49:32.009Z,7.60
2023-11-17T01:52:00.107Z,7.60
2023-11-17T01:54:28.398Z,7.60
2023-11-17T01:56:57.221Z,7.60
2023-11-17T01:59:27.764Z,7.50
2023-11-17T02:01:56.018Z,7.40
2023-11-17T02:04:24.435Z,7.40
2023-11-17T02:07:06.329Z,7.40
2023-11-17T02:09:43.037Z,7.40
2023-11-17T02:12:33.989Z,7.40
2023-11-17T02:15:11.094Z,7.40
2023-11-17T02:17:43.819Z,7.40
2023-11-17T02:20:14.186Z,7.40
2023-11-17T02:22:47.241Z,7.40
2023-11-17T02:25:25.026Z,7.40
2023-11-17T02:28:02.190Z,7.40
2023-11-17T02:30:35.413Z,7.40
2023-11-17T02:33:09.116Z,7.40
2023-11-17T02:35:38.191Z,7.40
2023-11-17T02:38:07.256Z,7.40
2023-11-17T02:40:39.231Z,7.40
2023-11-17T02:43:08.866Z,7.40
2023-11-17T02:45:38.668Z,7.40
2023-11-17T02:48:17.869Z,7.40
2023-11-17T02:51:05.183Z,7.40
2023-11-17T02:53:36.974Z,7.40
2023-11-17T02:56:06.080Z,7.40
2023-11-17T02:58:35.716Z,7.30
2023-11-17T03:01:06.405Z,7.30
2023-11-17T03:03:37.382Z,7.30
2023-11-17T03:06:07.967Z,7.30
2023-11-17T03:08:36.842Z,7.30
2023-11-17T03:11:05.752Z,7.30
2023-11-17T03:13:34.444Z,7.30
2023-11-17T03:16:04.419Z,7.30
2023-11-17T03:18:39.820Z,7.30
2023-11-17T03:21:11.009Z,7.30
2023-11-17T03:23:40.822Z,7.30
2023-11-17T03:26:12.447Z,7.30
2023-11-17T03:28:40.875Z,7.30
2023-11-17T03:31:15.423Z,7.30
2023-11-17T03:33:47.190Z,7.30
2023-11-17T03:36:20.760Z,7.30
2023-11-17T03:38:49.117Z,7.30
2023-11-17T03:41:19.900Z,7.30
2023-11-17T03:43:48.047Z,7.40
2023-11-17T03:46:17.965Z,7.40
2023-11-17T03:48:46.364Z,7.40
2023-11-17T03:51:16.116Z,7.40
2023-11-17T03:53:44.429Z,7.30
2023-11-17T03:56:13.311Z,7.40
2023-11-17T03:58:41.883Z,7.40
2023-11-17T04:01:10.138Z,7.40
2023-11-17T04:03:40.228Z,7.30
2023-11-17T04:06:10.510Z,7.30
2023-11-17T04:08:39.295Z,7.30
2023-11-17T04:11:07.778Z,7.30
2023-11-17T04:13:37.839Z,7.30
2023-11-17T04:16:07.567Z,7.20
2023-11-17T04:18:35.833Z,7.20
2023-11-17T04:21:06.346Z,7.20
2023-11-17T04:23:34.755Z,7.20
2023-11-17T04:26:03.714Z,7.20
2023-11-17T04:28:33.190Z,7.10
2023-11-17T04:31:01.511Z,7.20
2023-11-17T04:33:31.561Z,7.10
2023-11-17T04:35:59.969Z,7.10
2023-11-17T04:38:30.447Z,7.10
2023-11-17T04:40:59.382Z,7.10
2023-11-17T04:43:27.804Z,7.00
2023-11-17T04:45:56.701Z,7.10
2023-11-17T04:48:25.098Z,7.10
2023-11-17T04:50:53.419Z,7.00
2023-11-17T04:53:22.120Z,7.10
2023-11-17T04:55:53.500Z,7.10
2023-11-17T04:58:21.540Z,7.00
2023-11-17T05:00:49.718Z,7.00
2023-11-17T05:03:20.321Z,7.00
2023-11-17T05:05:49.627Z,7.00
2023-11-17T05:08:18.432Z,7.00
2023-11-17T05:10:47.156Z,7.00
2023-11-17T05:13:16.917Z,7.10
2023-11-17T05:15:48.438Z,7.10
2023-11-17T05:18:16.467Z,7.10
2023-11-17T05:20:44.896Z,7.00
2023-11-17T05:23:15.959Z,7.00
2023-11-17T05:25:44.870Z,7.10
2023-11-17T05:28:51.433Z,7.10
2023-11-17T05:31:22.025Z,7.10
2023-11-17T05:33:50.222Z,7.10
2023-11-17T05:36:18.381Z,7.10
2023-11-17T05:38:48.747Z,7.10
2023-11-17T05:41:18.637Z,7.10
2023-11-17T05:43:48.442Z,7.10
2023-11-17T05:46:16.829Z,7.10
2023-11-17T05:48:46.298Z,7.10
2023-11-17T05:51:14.499Z,7.10
2023-11-17T05:53:42.694Z,7.10
2023-11-17T05:56:12.803Z,7.10
2023-11-17T05:58:40.810Z,7.10
2023-11-17T06:01:08.834Z,7.10
2023-11-17T06:03:37.311Z,7.10
2023-11-17T06:06:07.168Z,7.10
2023-11-17T06:08:36.619Z,7.10
2023-11-17T06:11:10.120Z,7.00
2023-11-17T06:13:40.204Z,7.00
2023-11-17T06:16:09.257Z,7.00
2023-11-17T06:18:37.922Z,7.10
2023-11-17T06:21:07.648Z,7.10
2023-11-17T06:23:35.682Z,7.10
2023-11-17T06:26:05.530Z,7.10
2023-11-17T06:28:33.794Z,7.10
2023-11-17T06:31:02.289Z,7.10
2023-11-17T06:33:33.382Z,7.00
2023-11-17T06:36:05.022Z,7.00
2023-11-17T06:38:35.760Z,7.00
2023-11-17T06:41:04.421Z,7.00
2023-11-17T06:43:32.513Z,7.00
2023-11-17T06:46:00.825Z,7.00
2023-11-17T06:48:30.040Z,7.00
2023-11-17T06:50:58.689Z,7.00
2023-11-17T06:53:26.874Z,7.00
2023-11-17T06:55:56.428Z,6.90
2023-11-17T06:58:25.092Z,6.90
2023-11-17T07:00:53.299Z,6.80
2023-11-17T07:03:23.181Z,6.80
2023-11-17T07:05:52.787Z,6.80
2023-11-17T07:08:20.927Z,6.70
2023-11-17T07:10:52.123Z,6.70
2023-11-17T07:13:22.134Z,6.70
2023-11-17T07:15:50.222Z,6.60
2023-11-17T07:18:18.368Z,6.60
2023-11-17T07:20:46.524Z,6.50
2023-11-17T07:23:15.028Z,6.50
2023-11-17T07:25:46.392Z,6.50
2023-11-17T07:28:17.290Z,6.50
2023-11-17T07:30:48.072Z,6.50
2023-11-17T07:33:18.204Z,6.50
2023-11-17T07:35:46.739Z,6.50
2023-11-17T07:38:14.809Z,6.50
2023-11-17T07:40:44.087Z,6.40
2023-11-17T07:43:12.263Z,6.40
2023-11-17T07:45:40.790Z,6.30
2023-11-17T07:48:10.849Z,6.40
2023-11-17T07:50:40.776Z,6.40
2023-11-17T07:53:09.759Z,6.40
2023-11-17T07:55:40.245Z,6.40
2023-11-17T07:58:10.856Z,6.50
2023-11-17T08:00:39.041Z,6.40
2023-11-17T08:03:07.143Z,6.40
2023-11-17T08:05:36.692Z,6.50
2023-11-17T08:08:07.894Z,6.50
2023-11-17T08:10:35.978Z,6.40
2023-11-17T08:13:06.033Z,6.40
2023-11-17T08:15:35.540Z,6.40
2023-11-17T08:18:05.164Z,6.40
2023-11-17T08:20:33.596Z,6.40
2023-11-17T08:23:03.114Z,6.50
2023-11-17T08:25:33.857Z,6.40
2023-11-17T08:28:03.391Z,6.30
2023-11-17T08:30:35.974Z,6.30
2023-11-17T08:33:12.515Z,6.30
2023-11-17T08:35:40.540Z,6.40
2023-11-17T08:38:10.024Z,6.30
2023-11-17T08:40:38.083Z,6.40
2023-11-17T08:43:06.273Z,6.40
2023-11-17T08:45:34.782Z,6.40
2023-11-17T08:48:04.841Z,6.40
2023-11-17T08:50:33.113Z,6.40
2023-11-17T08:53:01.289Z,6.40
2023-11-17T08:55:30.785Z,6.40
2023-11-17T08:57:59.542Z,6.40
2023-11-17T09:00:27.770Z,6.40
2023-11-17T09:02:55.981Z,6.40
2023-11-17T09:05:24.894Z,6.50
2023-11-17T09:07:53.156Z,6.50
2023-11-17T09:10:23.490Z,6.40
2023-11-17T09:12:54.693Z,6.40
2023-11-17T09:15:25.058Z,6.40
2023-11-17T09:17:54.473Z,6.30
2023-11-17T09:20:27.573Z,6.40
2023-11-17T09:22:56.231Z,6.40
2023-11-17T09:25:25.926Z,6.50
2023-11-17T09:27:58.242Z,6.60
2023-11-17T09:30:29.535Z,6.60
2023-11-17T09:32:59.854Z,6.60
2023-11-17T09:35:29.103Z,6.60
2023-11-17T09:38:01.032Z,6.60
2023-11-17T09:40:31.729Z,6.70
2023-11-17T09:43:04.119Z,6.70
2023-11-17T09:45:33.156Z,6.80
2023-11-17T09:48:03.034Z,7.00
2023-11-17T09:50:32.473Z,7.20
2023-11-17T09:53:01.766Z,7.30
2023-11-17T09:55:32.526Z,7.40
2023-11-17T09:58:04.693Z,7.40
2023-11-17T10:00:34.940Z,7.50
2023-11-17T10:03:05.114Z,7.50
2023-11-17T10:05:34.340Z,7.40
2023-11-17T10:08:06.270Z,7.40
2023-11-17T10:10:37.522Z,7.30
2023-11-17T10:13:12.516Z,7.20
2023-11-17T10:15:43.098Z,7.30
2023-11-17T10:18:14.773Z,7.30
2023-11-17T10:20:44.719Z,7.20
2023-11-17T10:23:12.816Z,7.20
2023-11-17T10:25:42.184Z,7.00
2023-11-17T10:28:13.983Z,6.80
2023-11-17T10:30:42.884Z,6.90
2023-11-17T10:33:27.809Z,6.80
2023-11-17T10:36:03.422Z,6.80
2023-11-17T10:38:36.096Z,7.10
2023-11-17T10:41:18.470Z,7.20
2023-11-17T10:43:50.582Z,7.40
2023-11-17T10:46:22.653Z,7.30
2023-11-17T10:48:52.328Z,7.40
2023-11-17T10:51:22.605Z,7.60
2023-11-17T10:54:09.857Z,7.90
2023-11-17T10:56:38.981Z,8.40
2023-11-17T10:59:11.078Z,8.90
2023-11-17T11:01:42.200Z,9.10
2023-11-17T11:04:16.791Z,8.90
2023-11-17T11:06:47.332Z,8.70
2023-11-17T11:09:21.175Z,8.50
2023-11-17T11:11:52.060Z,8.50
2023-11-17T11:14:22.565Z,8.60
2023-11-17T11:16:51.223Z,8.60
2023-11-17T11:19:25.996Z,8.80
2023-11-17T11:22:02.538Z,8.80
2023-11-17T11:24:37.870Z,9.00
2023-11-17T11:27:08.307Z,8.90
2023-11-17T11:29:42.613Z,9.10
2023-11-17T11:32:13.142Z,9.40
2023-11-17T11:34:44.732Z,9.60
2023-11-17T11:37:13.300Z,9.50
2023-11-17T11:39:42.562Z,9.20
2023-11-17T11:42:12.863Z,9.00
2023-11-17T11:44:43.652Z,9.20
2023-11-17T11:47:12.228Z,9.50
2023-11-17T11:49:41.735Z,10.20
2023-11-17T11:52:20.184Z,10.00
2023-11-17T11:54:48.608Z,9.70
2023-11-17T11:57:27.069Z,10.00
2023-11-17T12:00:07.524Z,10.20
2023-11-17T12:02:38.935Z,10.20
2023-11-17T12:05:10.748Z,10.50
2023-11-17T12:07:39.109Z,10.50
2023-11-17T12:10:16.853Z,10.60
2023-11-17T12:12:48.392Z,10.30
2023-11-17T12:15:28.190Z,9.80
2023-11-17T12:18:00.817Z,9.50
2023-11-17T12:20:31.045Z,9.40
2023-11-17T12:23:03.125Z,9.50
2023-11-17T12:25:31.990Z,9.40
2023-11-17T12:28:00.883Z,9.20
2023-11-17T12:30:31.319Z,8.90
2023-11-17T12:33:00.185Z,8.60
2023-11-17T12:35:30.873Z,8.60
2023-11-17T12:37:59.290Z,8.60
2023-11-17T12:40:29.846Z,8.30
2023-11-17T12:42:59.335Z,8.30
2023-11-17T12:45:29.884Z,8.40
2023-11-17T12:48:02.085Z,8.50
2023-11-17T12:50:41.657Z,8.50
2023-11-17T12:53:11.270Z,8.40
2023-11-17T12:55:47.720Z,8.30
2023-11-17T12:58:16.121Z,8.20
2023-11-17T13:00:47.423Z,8.00
2023-11-17T13:03:18.933Z,7.80
2023-11-17T13:05:48.238Z,7.60
2023-11-17T13:08:16.369Z,7.50
2023-11-17T13:10:47.465Z,7.40
2023-11-17T13:13:15.648Z,7.30
2023-11-17T13:15:44.966Z,7.20
2023-11-17T13:18:13.442Z,7.20
2023-11-17T13:20:43.169Z,7.20
2023-11-17T13:23:12.689Z,7.20
2023-11-17T13:26:07.649Z,7.10
2023-11-17T13:28:43.528Z,7.10
2023-11-17T13:31:21.049Z,7.00
2023-11-17T13:33:51.626Z,7.00
2023-11-17T13:36:25.831Z,7.00
2023-11-17T13:39:16.838Z,7.00
2023-11-17T13:41:46.198Z,6.90
2023-11-17T13:44:25.130Z,6.90
2023-11-17T13:47:01.789Z,6.90
2023-11-17T13:49:36.009Z,6.90
2023-11-17T13:52:11.331Z,6.80
2023-11-17T13:54:40.312Z,6.80
2023-11-17T13:57:09.871Z,6.80
2023-11-17T13:59:38.390Z,6.80
2023-11-17T14:02:10.633Z,6.80
2023-11-17T14:04:39.621Z,6.80
2023-11-17T14:07:11.733Z,6.80
2023-11-17T14:09:41.258Z,6.90
2023-11-17T14:12:10.409Z,6.90
2023-11-17T14:14:42.974Z,6.90
2023-11-17T14:17:14.052Z,6.90
2023-11-17T14:19:45.882Z,6.80
2023-11-17T14:22:15.532Z,6.80
2023-11-17T14:24:44.358Z,6.80
2023-11-17T14:27:13.525Z,6.80
2023-11-17T14:29:44.058Z,6.70
2023-11-17T14:32:16.305Z,6.70
2023-11-17T14:34:46.209Z,6.70
2023-11-17T14:37:16.132Z,6.80
2023-11-17T14:39:44.240Z,6.80
2023-11-17T14:42:12.339Z,6.80
2023-11-17T14:44:40.692Z,6.80
2023-11-17T14:47:09.200Z,6.70
2023-11-17T14:49:39.598Z,6.70
2023-11-17T14:52:11.686Z,6.70
2023-11-17T14:54:41.889Z,6.60
2023-11-17T14:57:12.516Z,6.50
2023-11-17T14:59:42.668Z,6.40
2023-11-17T15:02:12.047Z,6.30
2023-11-17T15:04:40.781Z,6.30
2023-11-17T15:07:09.906Z,6.20
2023-11-17T15:09:39.581Z,6.10
2023-11-17T15:12:13.082Z,6.10
2023-11-17T15:14:41.128Z,6.10
2023-11-17T15:17:15.783Z,6.10
2023-11-17T15:19:44.361Z,6.10
2023-11-17T15:22:13.260Z,6.10
2023-11-17T15:24:44.351Z,6.10
2023-11-17T15:27:14.381Z,6.10
2023-11-17T15:29:42.730Z,6.00
2023-11-17T15:32:10.910Z,6.00
2023-11-17T15:34:40.477Z,6.00
2023-11-17T15:37:11.753Z,6.00
2023-11-17T15:39:39.946Z,6.00
2023-11-17T15:42:09.264Z,6.00
2023-11-17T15:44:41.332Z,6.00
2023-11-17T15:47:10.308Z,6.00
2023-11-17T15:49:42.315Z,6.00
2023-11-17T15:52:12.181Z,6.00
2023-11-17T15:54:48.887Z,6.00
2023-11-17T15:57:16.941Z,5.90
2023-11-17T15:59:46.406Z,5.80
2023-11-17T16:02:14.517Z,5.90
2023-11-17T16:04:42.675Z,5.90
2023-11-17T16:07:11.638Z,6.00
2023-11-17T16:09:39.636Z,5.90
2023-11-17T16:12:08.025Z,5.90
2023-11-17T16:14:37.931Z,5.90
2023-11-17T16:17:12.502Z,5.90
2023-11-17T16:19:41.051Z,6.00
2023-11-17T16:22:11.769Z,6.00
2023-11-17T16:24:40.878Z,6.00
2023-11-17T16:27:10.049Z,6.00
2023-11-17T16:29:38.311Z,6.10
2023-11-17T16:32:08.102Z,6.20
2023-11-17T16:34:36.522Z,6.20
2023-11-17T16:37:05.432Z,6.30
2023-11-17T16:39:33.573Z,6.30
2023-11-17T16:42:01.641Z,6.40
2023-11-17T16:44:35.664Z,6.40
2023-11-17T16:47:06.493Z,6.40
2023-11-17T16:49:38.289Z,6.40
2023-11-17T16:52:07.304Z,6.40
2023-11-17T16:54:38.989Z,6.50
2023-11-17T16:57:09.004Z,6.40
2023-11-17T16:59:37.165Z,6.50
2023-11-17T17:02:06.018Z,6.40
2023-11-17T17:04:35.952Z,6.40
2023-11-17T17:07:08.177Z,6.30
2023-11-17T17:09:36.761Z,6.30
2023-11-17T17:12:05.813Z,6.20
2023-11-17T17:14:36.548Z,6.20
2023-11-17T17:17:07.725Z,6.10
2023-11-17T17:19:38.762Z,6.10
2023-11-17T17:22:07.853Z,6.00
2023-11-17T17:24:40.076Z,6.00
2023-11-17T17:27:09.572Z,6.00
2023-11-17T17:29:37.701Z,6.00
2023-11-17T17:32:06.413Z,6.00
2023-11-17T17:34:36.449Z,6.00
2023-11-17T17:37:06.397Z,6.10
2023-11-17T17:39:35.799Z,6.00
2023-11-17T17:42:05.241Z,6.00
2023-11-17T17:44:33.330Z,6.00
2023-11-17T17:47:02.661Z,6.00
2023-11-17T17:49:31.241Z,6.00
2023-11-17T17:52:00.821Z,5.90
2023-11-17T17:54:30.378Z,5.90
2023-11-17T17:56:58.742Z,5.90
2023-11-17T17:59:26.759Z,5.90
2023-11-17T18:01:55.108Z,5.90
2023-11-17T18:04:25.159Z,5.90
2023-11-17T18:06:54.495Z,5.80
2023-11-17T18:09:23.032Z,5.80
2023-11-17T18:11:53.772Z,5.80
2023-11-17T18:14:21.910Z,5.80
2023-11-17T18:16:50.372Z,5.70
2023-11-17T18:19:18.612Z,5.70
2023-11-17T18:21:48.794Z,5.70
2023-11-17T18:24:16.894Z,5.70
2023-11-17T18:26:59.537Z,5.70
2023-11-17T18:29:29.033Z,5.60
2023-11-17T18:31:57.073Z,5.60
2023-11-17T18:34:25.316Z,5.60
2023-11-17T18:36:54.446Z,5.60
2023-11-17T18:39:26.485Z,5.60
2023-11-17T18:42:03.198Z,5.60
2023-11-17T18:44:31.508Z,5.60
2023-11-17T18:46:59.847Z,5.50
2023-11-17T18:49:30.511Z,5.60
2023-11-17T18:51:59.980Z,5.50
2023-11-17T18:54:29.100Z,5.40
2023-11-17T18:56:59.190Z,5.40
2023-11-17T18:59:27.464Z,5.40
2023-11-17T19:01:55.629Z,5.40
2023-11-17T19:04:24.172Z,5.30
2023-11-17T19:06:53.080Z,5.30
2023-11-17T19:09:21.277Z,5.20
2023-11-17T19:11:50.346Z,5.30
2023-11-17T19:14:20.456Z,5.30
2023-11-17T19:16:49.219Z,5.20
2023-11-17T19:19:17.742Z,5.20
2023-11-17T19:21:45.834Z,5.30
2023-11-17T19:24:22.493Z,5.40
2023-11-17T19:27:02.712Z,5.30
2023-11-17T19:29:32.038Z,5.40
2023-11-17T19:32:00.215Z,5.50
2023-11-17T19:34:29.373Z,5.60
2023-11-17T19:36:57.427Z,5.80
2023-11-17T19:39:27.520Z,6.00
2023-11-17T19:41:56.806Z,6.00
2023-11-17T19:44:35.469Z,6.00
2023-11-17T19:47:12.602Z,5.90
2023-11-17T19:49:41.164Z,5.90
2023-11-17T19:52:10.459Z,5.90
2023-11-17T19:54:39.814Z,5.80
2023-11-17T19:57:08.595Z,5.80
2023-11-17T19:59:39.912Z,5.80
2023-11-17T20:02:08.878Z,5.70
2023-11-17T20:04:42.493Z,5.60
2023-11-17T20:07:15.062Z,5.60
2023-11-17T20:09:46.045Z,5.60
2023-11-17T20:12:14.115Z,5.60
2023-11-17T20:14:45.031Z,5.60
2023-11-17T20:17:13.907Z,5.60
2023-11-17T20:19:45.940Z,5.60
2023-11-17T20:22:16.645Z,5.60
2023-11-17T20:24:47.204Z,5.60
2023-11-17T20:27:16.102Z,5.60
2023-11-17T20:29:45.453Z,5.60
2023-11-17T20:32:13.588Z,5.60
2023-11-17T20:34:43.679Z,5.60
2023-11-17T20:37:11.942Z,5.60
2023-11-17T20:39:40.141Z,5.60
2023-11-17T20:42:07.327Z,5.60
2023-11-17T20:44:35.432Z,5.60
2023-11-17T20:47:03.903Z,5.60
2023-11-17T20:49:36.905Z,5.60
2023-11-17T20:52:07.177Z,5.60
2023-11-17T20:54:38.945Z,5.60
2023-11-17T20:57:09.696Z,5.60
2023-11-17T20:59:41.984Z,5.60
2023-11-17T21:02:11.114Z,5.60
2023-11-17T21:04:39.504Z,5.50
2023-11-17T21:07:11.467Z,5.50
2023-11-17T21:09:39.821Z,5.50
2023-11-17T21:12:08.767Z,5.50
2023-11-17T21:14:36.814Z,5.50
2023-11-17T21:17:07.833Z,5.40
2023-11-17T21:19:36.894Z,5.40
2023-11-17T21:22:05.198Z,5.50
2023-11-17T21:24:34.710Z,5.50
2023-11-17T21:27:03.725Z,5.50
2023-11-17T21:29:31.939Z,5.60
2023-11-17T21:32:02.391Z,5.60
2023-11-17T21:34:30.445Z,5.60
2023-11-17T21:36:58.491Z,5.60
2023-11-17T21:39:27.618Z,5.60
2023-11-17T21:41:57.216Z,5.60
2023-11-17T21:44:25.412Z,5.60
2023-11-17T21:46:55.108Z,5.50
2023-11-17T21:49:26.050Z,5.50
2023-11-17T21:51:54.484Z,5.50
2023-11-17T21:54:22.615Z,5.50
2023-11-17T21:56:50.635Z,5.40
2023-11-17T21:59:20.259Z,5.40
2023-11-17T22:01:48.442Z,5.40
2023-11-17T22:04:18.804Z,5.40
2023-11-17T22:06:51.726Z,5.40
2023-11-17T22:09:19.833Z,5.40
2023-11-17T22:11:48.301Z,5.40
2023-11-17T22:14:18.049Z,5.50
2023-11-17T22:16:47.830Z,5.60
2023-11-17T22:19:16.446Z,5.60
2023-11-17T22:21:44.589Z,5.60
2023-11-17T22:24:14.971Z,5.60
2023-11-17T22:26:43.595Z,5.60
2023-11-17T22:29:12.161Z,5.50
2023-11-17T22:31:40.251Z,5.50
2023-11-17T22:34:11.960Z,5.60
2023-11-17T22:36:40.021Z,5.50
2023-11-17T22:39:10.211Z,5.50
2023-11-17T22:41:38.378Z,5.40
2023-11-17T22:44:07.689Z,5.30
2023-11-17T22:46:39.113Z,5.30
2023-11-17T22:49:07.418Z,5.30
2023-11-17T22:51:36.860Z,5.30
2023-11-17T22:54:05.164Z,5.20
2023-11-17T22:56:33.186Z,5.20
2023-11-17T22:59:01.254Z,5.20
2023-11-17T23:01:30.367Z,5.20
2023-11-17T23:03:58.633Z,5.30
2023-11-17T23:06:26.859Z,5.40
2023-11-17T23:08:56.337Z,5.40
2023-11-17T23:11:26.173Z,5.40
2023-11-17T23:13:55.149Z,5.40
2023-11-17T23:16:23.882Z,5.40
2023-11-17T23:18:52.020Z,5.30
2023-11-17T23:21:19.997Z,5.30
2023-11-17T23:23:48.302Z,5.20
2023-11-17T23:26:18.460Z,5.10
2023-11-17T23:28:47.329Z,5.10
2023-11-17T23:31:16.534Z,5.00
2023-11-17T23:33:44.901Z,5.10
2023-11-17T23:36:12.993Z,5.10
2023-11-17T23:38:42.787Z,5.10
2023-11-17T23:41:10.953Z,5.10
2023-11-17T23:43:40.890Z,5.00
2023-11-17T23:46:09.046Z,4.80
2023-11-17T23:48:37.025Z,4.70
2023-11-17T23:51:05.788Z,4.60
2023-11-17T23:53:34.133Z,4.60
2023-11-17T23:56:02.232Z,4.70
2023-11-17T23:58:30.693Z,4.70
